Flight Track Log - Related Links

Times and Time Zones

All times are in EDT time to prevent confusion due to time zone crossing. See the KAP169 flight status page for this flight to view local times or setup timezone preferences in your user account.

Time Position Orientation Groundspeed Altitude Reporting Facility
EDT Latitude Longitude Course Direction KTS MPH feet Rate Location/Type
Sat 02:18:27 PM 42.3833 -71.0000 20° North 129 148 500  Level KA90
Sat 02:19:17 PM 42.4167 -70.9833 20° North 124 143 1,200 789 Climbing KA90
Sat 02:20:21 PM 42.4500 -70.9500 36° Northeast 132 152 2,000 720 Climbing KA90
Sat 02:21:22 PM 42.4667 -70.9333 36° Northeast 135 155 2,700 718 Climbing KA90
Sat 02:22:18 PM 42.5000 -70.9000 36° Northeast 143 165 3,400 700 Climbing KA90
Sat 02:23:22 PM 42.5333 -70.8500 48° Northeast 146 168 4,100 600 Climbing KA90
Sat 02:24:18 PM 42.5667 -70.8167 36° Northeast 150 173 4,600 564 Climbing KA90
Sat 02:25:19 PM 42.6000 -70.7833 36° Northeast 149 171 5,200 446 Climbing KA90
Sat 02:26:19 PM 42.6333 -70.7500 36° Northeast 159 183 5,500 151 Climbing KA90
Sat 02:27:18 PM 42.6667 -70.7000 48° Northeast 171 197 5,500  Level KA90
Sat 02:28:25 PM 42.7000 -70.6667 36° Northeast 164 189 5,500  Level KA90
Sat 02:29:22 PM 42.7500 -70.6333 26° Northeast 162 186 5,500  Level KA90
Sat 02:30:25 PM 42.7833 -70.5833 48° Northeast 162 186 5,500  Level KA90
Sat 02:31:29 PM 42.8167 -70.5500 36° Northeast 165 190 5,500  Level KA90
Sat 02:32:25 PM 42.8500 -70.5167 36° Northeast 164 189 5,500  Level KA90
Sat 02:33:23 PM 42.8833 -70.4667 48° Northeast 164 189 5,500  Level KA90
Sat 02:34:25 PM 42.9167 -70.4333 36° Northeast 164 189 5,500  Level KA90
Sat 02:35:25 PM 42.9500 -70.3833 48° Northeast 165 190 5,500  Level KA90
Sat 02:37:00 PM 42.9993 -70.3277 40° Northeast  Level Estimated
Sat 02:44:00 PM 43.2168 -70.0806 40° Northeast  Level Estimated
Sat 02:45:00 PM 43.2478 -70.0451 40° Northeast  Level Estimated
Sat 02:46:00 PM 43.2788 -70.0096 40° Northeast  Level Estimated
Sat 02:47:00 PM 43.3098 -69.9741 40° Northeast  Level Estimated
Sat 02:48:00 PM 43.3408 -69.9385 40° Northeast  Level Estimated
Sat 02:49:00 PM 43.3718 -69.9029 40° Northeast  Level Estimated
Sat 02:50:00 PM 43.4027 -69.8673 40° Northeast  Level Estimated
Sat 02:51:00 PM 43.4337 -69.8316 40° Northeast  Level Estimated
Sat 02:52:00 PM 43.4646 -69.7960 40° Northeast  Level Estimated
Sat 02:53:00 PM 43.4956 -69.7602 40° Northeast  Level Estimated
Sat 02:54:00 PM 43.5265 -69.7244 40° Northeast  Level Estimated
Sat 02:55:00 PM 43.5574 -69.6886 40° Northeast  Level Estimated
Sat 02:56:00 PM 43.5883 -69.6528 40° Northeast  Level Estimated
Sat 02:57:00 PM 43.6192 -69.6169 40° Northeast  Level Estimated
Sat 02:58:00 PM 43.6501 -69.5810 40° Northeast  Level Estimated
Sat 02:59:00 PM 43.6810 -69.5450 40° Northeast  Level Estimated
Sat 03:00:00 PM 43.7118 -69.5090 40° Northeast  Level Estimated
Sat 03:01:00 PM 43.7427 -69.4730 40° Northeast  Level Estimated
Sat 03:02:00 PM 43.7735 -69.4369 40° Northeast  Level Estimated
Sat 03:03:00 PM 43.8043 -69.4008 40° Northeast  Level Estimated
Sat 03:04:00 PM 43.8351 -69.3646 40° Northeast  Level Estimated
Sat 03:05:00 PM 43.8659 -69.3285 40° Northeast  Level Estimated
Sat 03:06:00 PM 43.8967 -69.2923 40° Northeast  Level Estimated
Sat 03:07:00 PM 43.9275 -69.2560 40° Northeast  Level Estimated
Sat 03:08:00 PM 43.9583 -69.2197 40° Northeast  Level Estimated
Sat 03:09:00 PM 43.9890 -69.1834 40° Northeast  Level Estimated
Sat 03:10:00 PM 44.0198 -69.1470 40° Northeast  Level Estimated
Sat 03:11:00 PM 44.0505 -69.1106 40° Northeast  Level Estimated
Sat 03:12:00 PM 44.0601 -69.0993 40° Northeast  Level Estimated
Sat 03:13:00 PM 44.0601 -69.0993 28° Northeast  Level Estimated
Sat 03:14:00 PM 44.0601 -69.0993 28° Northeast  Level Estimated
Sat 03:15:00 PM 44.0601 -69.0993 28° Northeast  Level Estimated
Sat 03:16:00 PM 44.0601 -69.0993 28° Northeast  Level Estimated
Sat 03:17:00 PM 44.0601 -69.0993 28° Northeast  Level Estimated
Sat 03:18:00 PM 44.0601 -69.0993 28° Northeast  Level Estimated
Sat 03:19:00 PM 44.0601 -69.0993 28° Northeast  Level Estimated
Sat 03:20:00 PM 44.0601 -69.0993 28° Northeast  Level Estimated
Sat 03:21:00 PM 44.0601 -69.0993 28° Northeast  Level Estimated
Sat 03:22:00 PM 44.0601 -69.0993 28° Northeast  Level Estimated
Sat 03:23:00 PM 44.0601 -69.0993 28° Northeast  Level Estimated
Sat 03:24:00 PM 44.0601 -69.0993 28° Northeast  Level Estimated
Sat 03:25:00 PM 44.0601 -69.0993 28° Northeast  Level Estimated
Sat 03:26:00 PM 44.0601 -69.0993 28° Northeast  Level Estimated
Sat 03:27:00 PM 44.0601 -69.0993 28° Northeast  Level Estimated
Sat 03:28:00 PM 44.0601 -69.0993 28° Northeast  Level Estimated
Sat 03:29:00 PM 44.0601 -69.0993 28° Northeast  Level Estimated
Sat 03:30:00 PM 44.0601 -69.0993 28° Northeast  Level Estimated
Sat 03:31:00 PM 44.0601 -69.0993 28° Northeast  Level Estimated
Sat 03:32:00 PM 44.0601 -69.0993 28° Northeast  Level Estimated
Sat 03:33:00 PM 44.0601 -69.0993 28° Northeast  Level Estimated
Sat 03:34:00 PM 44.0601 -69.0993 28° Northeast  Level Estimated
Sat 03:35:00 PM 44.0601 -69.0993 28° Northeast  Level Estimated
Sat 03:36:00 PM 44.0601 -69.0993 28° Northeast  Level Estimated
Sat 03:37:00 PM 44.0601 -69.0993 28° Northeast  Level Estimated

Login

Don't have an account? Register now (free) for customized features, flight alerts, and more!